createdAt,value
2023-03-29T00:02:04.987Z,1.98
2023-03-29T00:04:31.878Z,1.65
2023-03-29T00:07:04.646Z,1.98
2023-03-29T00:09:33.264Z,2.10
2023-03-29T00:12:01.301Z,1.80
2023-03-29T00:14:30.462Z,2.03
2023-03-29T00:16:58.519Z,1.98
2023-03-29T00:19:25.570Z,2.15
2023-03-29T00:21:52.529Z,2.20
2023-03-29T00:24:21.048Z,2.15
2023-03-29T00:26:47.968Z,2.10
2023-03-29T00:29:14.716Z,1.90
2023-03-29T00:31:41.439Z,2.20
2023-03-29T00:34:08.217Z,1.95
2023-03-29T00:36:35.967Z,2.38
2023-03-29T00:39:02.669Z,2.45
2023-03-29T00:41:29.385Z,2.28
2023-03-29T00:44:02.003Z,2.28
2023-03-29T00:46:30.513Z,2.45
2023-03-29T00:49:13.874Z,2.10
2023-03-29T00:51:42.604Z,2.05
2023-03-29T00:54:14.649Z,2.50
2023-03-29T00:56:46.178Z,2.22
2023-03-29T00:59:21.596Z,2.60
2023-03-29T01:01:54.770Z,2.47
2023-03-29T01:04:36.842Z,2.45
2023-03-29T01:07:21.287Z,2.13
2023-03-29T01:09:59.175Z,2.55
2023-03-29T01:12:35.985Z,2.70
2023-03-29T01:15:06.938Z,2.20
2023-03-29T01:17:33.742Z,2.28
2023-03-29T01:20:43.389Z,2.90
2023-03-29T01:23:37.905Z,2.55
2023-03-29T01:26:23.507Z,2.17
2023-03-29T01:28:53.285Z,2.70
2023-03-29T01:31:28.426Z,2.40
2023-03-29T01:34:04.944Z,2.60
2023-03-29T01:36:41.163Z,2.75
2023-03-29T01:39:08.407Z,2.47
2023-03-29T01:41:59.907Z,2.75
2023-03-29T01:44:51.952Z,2.70
2023-03-29T01:47:34.553Z,2.97
2023-03-29T01:50:36.848Z,3.08
2023-03-29T01:53:18.983Z,2.60
2023-03-29T01:55:53.597Z,2.97
2023-03-29T01:58:25.204Z,2.47
2023-03-29T02:00:55.223Z,2.80
2023-03-29T02:03:26.578Z,3.17
2023-03-29T02:05:55.268Z,2.78
2023-03-29T02:08:23.312Z,2.63
2023-03-29T02:10:51.817Z,2.80
2023-03-29T02:13:19.541Z,2.90
2023-03-29T02:15:49.383Z,2.88
2023-03-29T02:18:17.893Z,3.03
2023-03-29T02:20:48.716Z,3.45
2023-03-29T02:23:21.472Z,3.20
2023-03-29T02:25:50.505Z,2.80
2023-03-29T02:28:17.384Z,2.72
2023-03-29T02:30:53.858Z,3.25
2023-03-29T02:33:46.022Z,3.47
2023-03-29T02:36:22.487Z,3.13
2023-03-29T02:38:49.506Z,3.00
2023-03-29T02:41:17.777Z,3.45
2023-03-29T02:43:47.628Z,3.03
2023-03-29T02:46:16.102Z,3.40
2023-03-29T02:48:45.581Z,3.33
2023-03-29T02:51:20.048Z,3.30
2023-03-29T02:54:00.164Z,3.38
2023-03-29T02:56:27.068Z,3.50
2023-03-29T02:58:53.768Z,3.67
2023-03-29T03:01:20.714Z,3.50
2023-03-29T03:03:48.157Z,3.70
2023-03-29T03:06:15.250Z,3.08
2023-03-29T03:08:42.273Z,3.50
2023-03-29T03:11:08.932Z,3.92
2023-03-29T03:13:35.635Z,3.30
2023-03-29T03:16:03.228Z,3.45
2023-03-29T03:18:30.086Z,3.40
2023-03-29T03:21:04.658Z,3.72
2023-03-29T03:23:32.024Z,3.75
2023-03-29T03:25:59.070Z,3.85
2023-03-29T03:28:27.316Z,3.35
2023-03-29T03:30:54.357Z,3.30
2023-03-29T03:33:21.115Z,3.88
2023-03-29T03:35:48.015Z,3.25
2023-03-29T03:38:15.262Z,3.45
2023-03-29T03:40:42.561Z,3.00
2023-03-29T03:43:09.454Z,3.38
2023-03-29T03:45:36.280Z,3.40
2023-03-29T03:48:03.173Z,3.47
2023-03-29T03:50:29.881Z,3.88
2023-03-29T03:52:56.598Z,3.83
2023-03-29T03:55:23.956Z,3.65
2023-03-29T03:57:52.016Z,3.70
2023-03-29T04:00:22.815Z,3.45
2023-03-29T04:02:49.876Z,3.83
2023-03-29T04:05:17.218Z,4.15
2023-03-29T04:07:43.964Z,3.50
2023-03-29T04:10:11.173Z,3.92
2023-03-29T04:12:38.900Z,4.53
2023-03-29T04:15:07.177Z,4.00
2023-03-29T04:17:34.318Z,3.80
2023-03-29T04:20:02.235Z,3.80
2023-03-29T04:22:29.099Z,3.90
2023-03-29T04:24:56.212Z,3.72
2023-03-29T04:27:23.041Z,3.42
2023-03-29T04:29:49.711Z,3.33
2023-03-29T04:32:16.434Z,3.97
2023-03-29T04:34:43.116Z,3.40
2023-03-29T04:37:10.097Z,3.50
2023-03-29T04:39:37.598Z,3.17
2023-03-29T04:42:05.226Z,3.78
2023-03-29T04:44:35.147Z,3.63
2023-03-29T04:47:02.961Z,4.07
2023-03-29T04:49:29.647Z,3.63
2023-03-29T04:51:57.113Z,3.90
2023-03-29T04:54:23.966Z,3.83
2023-03-29T04:56:52.226Z,3.65
2023-03-29T04:59:19.098Z,3.63
2023-03-29T05:01:45.903Z,4.05
2023-03-29T05:04:13.882Z,3.92
2023-03-29T05:06:41.256Z,3.90
2023-03-29T05:09:08.828Z,4.32
2023-03-29T05:11:36.237Z,3.65
2023-03-29T05:14:03.445Z,3.50
2023-03-29T05:16:30.303Z,4.40
2023-03-29T05:18:57.587Z,3.95
2023-03-29T05:21:26.154Z,3.78
2023-03-29T05:23:53.324Z,4.32
2023-03-29T05:26:22.328Z,3.65
2023-03-29T05:28:49.868Z,3.70
2023-03-29T05:31:17.231Z,3.10
2023-03-29T05:33:44.169Z,3.55
2023-03-29T05:36:14.091Z,4.18
2023-03-29T05:38:42.663Z,3.17
2023-03-29T05:41:10.768Z,3.97
2023-03-29T05:43:37.447Z,4.30
2023-03-29T05:46:04.449Z,4.00
2023-03-29T05:48:37.333Z,3.83
2023-03-29T05:51:05.458Z,3.53
2023-03-29T05:53:32.283Z,3.67
2023-03-29T05:55:59.942Z,3.63
2023-03-29T05:58:28.446Z,4.00
2023-03-29T06:00:55.218Z,3.47
2023-03-29T06:03:27.316Z,3.67
2023-03-29T06:06:05.072Z,4.00
2023-03-29T06:08:33.395Z,4.15
2023-03-29T06:11:04.605Z,4.00
2023-03-29T06:13:34.027Z,4.05
2023-03-29T06:16:01.493Z,3.72
2023-03-29T06:18:29.318Z,3.92
2023-03-29T06:20:56.118Z,4.07
2023-03-29T06:23:23.311Z,4.72
2023-03-29T06:25:55.198Z,3.97
2023-03-29T06:28:23.933Z,4.75
2023-03-29T06:30:50.741Z,4.22
2023-03-29T06:33:18.737Z,4.32
2023-03-29T06:35:48.069Z,4.67
2023-03-29T06:38:15.502Z,4.57
2023-03-29T06:40:44.513Z,4.03
2023-03-29T06:43:11.244Z,4.60
2023-03-29T06:45:38.956Z,4.68
2023-03-29T06:48:07.839Z,4.80
2023-03-29T06:50:35.447Z,5.18
2023-03-29T06:53:02.990Z,4.70
2023-03-29T06:55:31.603Z,4.95
2023-03-29T06:58:00.936Z,5.20
2023-03-29T07:00:29.924Z,5.20
2023-03-29T07:02:59.366Z,5.53
2023-03-29T07:05:27.404Z,5.18
2023-03-29T07:08:11.227Z,5.68
2023-03-29T07:10:43.139Z,5.88
2023-03-29T07:13:14.078Z,4.90
2023-03-29T07:15:41.587Z,5.78
2023-03-29T07:18:09.879Z,5.53
2023-03-29T07:20:38.840Z,5.70
2023-03-29T07:23:06.847Z,5.43
2023-03-29T07:25:34.026Z,5.63
2023-03-29T07:28:00.967Z,5.05
2023-03-29T07:30:31.604Z,6.00
2023-03-29T07:33:00.496Z,5.97
2023-03-29T07:35:28.348Z,6.68
2023-03-29T07:37:55.951Z,6.30
2023-03-29T07:40:23.946Z,5.97
2023-03-29T07:42:53.965Z,7.03
2023-03-29T07:45:26.750Z,6.28
2023-03-29T07:47:57.798Z,6.50
2023-03-29T07:50:25.318Z,6.43
2023-03-29T07:52:53.556Z,7.18
2023-03-29T07:55:22.178Z,7.03
2023-03-29T07:57:49.500Z,6.72
2023-03-29T08:00:17.217Z,7.35
2023-03-29T08:02:45.430Z,7.10
2023-03-29T08:05:23.241Z,6.93
2023-03-29T08:07:56.441Z,7.88
2023-03-29T08:10:23.254Z,7.65
2023-03-29T08:12:53.808Z,8.38
2023-03-29T08:15:20.692Z,8.27
2023-03-29T08:17:47.385Z,7.97
2023-03-29T08:20:16.235Z,8.27
2023-03-29T08:25:11.941Z,8.52
2023-03-29T08:27:40.796Z,9.30
2023-03-29T08:35:05.290Z,8.88
2023-03-29T08:37:32.619Z,9.93
2023-03-29T08:40:00.898Z,10.63
2023-03-29T08:42:37.944Z,9.43
2023-03-29T08:45:23.903Z,10.43
2023-03-29T08:48:03.825Z,10.25
2023-03-29T08:50:52.872Z,9.90
2023-03-29T08:53:44.136Z,9.70
2023-03-29T08:56:27.734Z,9.63
2023-03-29T08:58:58.644Z,9.73
2023-03-29T09:01:31.672Z,9.80
2023-03-29T09:04:09.800Z,10.55
2023-03-29T09:06:39.966Z,10.02
2023-03-29T09:09:13.718Z,10.07
2023-03-29T09:11:58.970Z,9.98
2023-03-29T09:14:53.613Z,10.35
2023-03-29T09:17:44.562Z,10.60
2023-03-29T09:20:21.245Z,10.23
2023-03-29T09:23:28.443Z,9.60
2023-03-29T09:26:02.168Z,11.50
2023-03-29T09:28:36.043Z,11.15
2023-03-29T09:31:11.367Z,11.23
2023-03-29T09:33:59.905Z,10.30
2023-03-29T09:39:00.594Z,10.30
2023-03-29T09:41:41.180Z,11.17
2023-03-29T09:44:24.172Z,11.02
2023-03-29T09:47:08.769Z,11.68
2023-03-29T09:49:38.726Z,11.15
2023-03-29T09:52:12.906Z,11.43
2023-03-29T09:54:39.954Z,11.88
2023-03-29T09:57:09.165Z,11.73
2023-03-29T09:59:36.870Z,11.77
2023-03-29T10:02:12.874Z,11.40
2023-03-29T10:04:42.548Z,11.80
2023-03-29T10:07:20.654Z,11.45
2023-03-29T10:09:51.904Z,11.95
2023-03-29T10:12:20.432Z,12.25
2023-03-29T10:14:54.134Z,11.88
2023-03-29T10:17:24.419Z,11.82
2023-03-29T10:20:04.335Z,12.50
2023-03-29T10:22:37.698Z,13.80
2023-03-29T10:25:13.820Z,13.07
2023-03-29T10:27:43.605Z,12.75
2023-03-29T10:30:19.565Z,12.57
2023-03-29T10:32:47.059Z,12.80
2023-03-29T10:35:24.115Z,13.82
2023-03-29T10:37:55.766Z,13.73
2023-03-29T10:40:32.412Z,13.00
2023-03-29T10:43:00.838Z,13.35
2023-03-29T10:45:28.999Z,13.00
2023-03-29T10:47:57.912Z,13.73
2023-03-29T10:50:26.633Z,14.10
2023-03-29T10:52:53.902Z,13.80
2023-03-29T10:55:23.394Z,13.55
2023-03-29T10:58:02.654Z,14.10
2023-03-29T11:00:33.335Z,13.93
2023-03-29T11:03:21.454Z,14.27
2023-03-29T11:05:54.779Z,13.02
2023-03-29T11:08:39.887Z,12.65
2023-03-29T11:11:22.247Z,13.93
2023-03-29T11:14:11.425Z,13.80
2023-03-29T11:16:49.461Z,12.68
2023-03-29T11:19:31.532Z,13.05
2023-03-29T11:22:35.518Z,12.35
2023-03-29T11:25:10.281Z,12.20
2023-03-29T11:28:09.631Z,11.93
2023-03-29T11:30:47.400Z,13.88
2023-03-29T11:33:36.134Z,14.18
2023-03-29T11:36:17.702Z,14.30
2023-03-29T11:39:00.701Z,14.07
2023-03-29T11:41:39.833Z,14.43
2023-03-29T11:44:17.650Z,14.90
2023-03-29T11:46:48.208Z,15.40
2023-03-29T11:49:26.521Z,15.43
2023-03-29T11:52:20.958Z,16.48
2023-03-29T11:55:10.202Z,16.58
2023-03-29T11:57:39.120Z,16.48
2023-03-29T12:00:20.523Z,16.25
2023-03-29T12:03:08.923Z,16.38
2023-03-29T12:05:42.909Z,16.30
2023-03-29T12:08:17.327Z,15.52
2023-03-29T12:10:50.762Z,16.25
2023-03-29T12:13:37.919Z,15.90
2023-03-29T12:16:11.171Z,14.63
2023-03-29T12:18:42.453Z,18.50
2023-03-29T12:21:12.974Z,19.60
2023-03-29T12:23:42.524Z,20.92
2023-03-29T12:26:19.566Z,21.17
2023-03-29T12:28:55.326Z,21.50
2023-03-29T12:31:33.079Z,18.95
2023-03-29T12:34:17.569Z,19.20
2023-03-29T12:37:00.464Z,18.20
2023-03-29T12:39:28.282Z,18.55
2023-03-29T12:42:18.604Z,19.67
2023-03-29T12:44:49.572Z,19.45
2023-03-29T12:47:23.557Z,19.98
2023-03-29T12:49:59.287Z,19.98
2023-03-29T12:52:34.630Z,21.15
2023-03-29T12:55:03.007Z,19.42
2023-03-29T12:57:40.982Z,18.85
2023-03-29T13:00:26.658Z,18.33
2023-03-29T13:03:20.049Z,18.55
2023-03-29T13:05:48.217Z,17.38
2023-03-29T13:08:28.671Z,17.55
2023-03-29T13:10:56.720Z,18.20
2023-03-29T13:13:31.577Z,17.33
2023-03-29T13:16:09.503Z,15.50
2023-03-29T13:18:56.916Z,15.82
2023-03-29T13:21:28.517Z,15.57
2023-03-29T13:24:01.539Z,15.48
2023-03-29T13:26:47.206Z,14.40
2023-03-29T13:29:33.750Z,13.80
2023-03-29T13:32:19.722Z,13.60
2023-03-29T13:34:51.505Z,13.45
2023-03-29T13:37:21.761Z,12.95
2023-03-29T13:39:53.561Z,11.80
2023-03-29T13:42:24.478Z,12.38
2023-03-29T13:44:51.722Z,12.48
2023-03-29T13:47:29.924Z,15.18
2023-03-29T13:49:58.826Z,13.88
2023-03-29T13:52:28.808Z,13.07
2023-03-29T13:55:24.122Z,12.50
2023-03-29T13:58:00.179Z,12.90
2023-03-29T14:00:38.772Z,12.95
2023-03-29T14:05:38.272Z,14.25
2023-03-29T14:08:08.477Z,14.95
2023-03-29T14:10:42.014Z,15.43
2023-03-29T14:13:17.796Z,13.50
2023-03-29T14:15:50.465Z,14.65
2023-03-29T14:18:21.249Z,15.30
2023-03-29T14:20:54.834Z,17.00
2023-03-29T14:23:26.061Z,17.58
2023-03-29T14:25:53.173Z,18.92
2023-03-29T14:28:20.400Z,18.55
2023-03-29T14:30:48.027Z,19.23
2023-03-29T14:33:14.813Z,19.35
2023-03-29T14:35:42.272Z,20.20
2023-03-29T14:38:12.832Z,20.00
2023-03-29T14:40:39.847Z,18.85
2023-03-29T14:43:08.254Z,18.85
2023-03-29T14:45:35.626Z,17.75
2023-03-29T14:48:02.652Z,18.20
2023-03-29T14:50:31.509Z,18.35
2023-03-29T14:52:59.382Z,17.15
2023-03-29T14:55:27.245Z,16.70
2023-03-29T14:57:55.336Z,16.63
2023-03-29T15:00:26.865Z,16.17
2023-03-29T15:03:04.086Z,15.48
2023-03-29T15:05:40.189Z,14.93
2023-03-29T15:08:12.456Z,14.55
2023-03-29T15:10:42.340Z,14.15
2023-03-29T15:13:17.548Z,12.60
2023-03-29T15:15:44.708Z,12.80
2023-03-29T15:18:14.291Z,12.25
2023-03-29T15:20:42.231Z,12.35
2023-03-29T15:23:20.982Z,10.68
2023-03-29T15:25:53.574Z,11.65
2023-03-29T15:28:32.514Z,9.70
2023-03-29T15:31:19.742Z,10.40
2023-03-29T15:33:46.904Z,8.73
2023-03-29T15:36:14.628Z,8.85
2023-03-29T15:38:45.108Z,8.80
2023-03-29T15:41:14.048Z,8.07
2023-03-29T15:43:41.919Z,8.15
2023-03-29T15:46:09.151Z,7.22
2023-03-29T15:48:37.371Z,7.10
2023-03-29T15:51:08.488Z,6.93
2023-03-29T15:53:36.281Z,7.25
2023-03-29T15:56:07.509Z,6.93
2023-03-29T15:58:41.580Z,6.75
2023-03-29T16:01:35.420Z,6.80
2023-03-29T16:04:07.814Z,6.90
2023-03-29T16:06:34.885Z,7.13
2023-03-29T16:09:02.039Z,6.85
2023-03-29T16:11:28.804Z,6.15
2023-03-29T16:13:56.435Z,5.93
2023-03-29T16:16:23.467Z,6.00
2023-03-29T16:18:50.619Z,7.22
2023-03-29T16:21:19.111Z,6.18
2023-03-29T16:23:46.525Z,5.60
2023-03-29T16:26:16.255Z,6.50
2023-03-29T16:28:43.364Z,13.50
2023-03-29T16:31:11.874Z,9.35
2023-03-29T16:33:39.519Z,6.22
2023-03-29T16:36:07.358Z,5.55
2023-03-29T16:38:34.256Z,69.65
2023-03-29T16:41:01.732Z,24.02
2023-03-29T16:43:28.902Z,11.65
2023-03-29T16:45:56.863Z,5.45
2023-03-29T16:48:24.360Z,4.97
2023-03-29T16:50:51.775Z,4.72
2023-03-29T16:53:19.920Z,3.85
2023-03-29T16:55:47.433Z,5.18
2023-03-29T16:58:15.418Z,4.22
2023-03-29T17:00:44.386Z,4.75
2023-03-29T17:03:12.957Z,3.75
2023-03-29T17:05:41.709Z,4.25
2023-03-29T17:08:10.172Z,3.90
2023-03-29T17:10:37.655Z,4.22
2023-03-29T17:13:04.743Z,4.18
2023-03-29T17:15:32.005Z,4.03
2023-03-29T17:17:59.215Z,4.13
2023-03-29T17:20:26.401Z,4.05
2023-03-29T17:22:56.004Z,4.50
2023-03-29T17:27:51.064Z,4.15
2023-03-29T17:30:18.838Z,4.05
2023-03-29T17:32:46.024Z,4.43
2023-03-29T17:35:15.658Z,4.40
2023-03-29T17:37:42.734Z,4.35
2023-03-29T17:40:14.177Z,4.50
2023-03-29T17:42:42.078Z,4.40
2023-03-29T17:45:09.923Z,4.32
2023-03-29T17:47:37.846Z,3.88
2023-03-29T17:50:05.556Z,4.65
2023-03-29T17:52:32.627Z,4.38
2023-03-29T17:54:59.914Z,3.67
2023-03-29T17:57:27.087Z,3.75
2023-03-29T17:59:54.316Z,3.88
2023-03-29T18:02:22.867Z,3.78
2023-03-29T18:07:17.581Z,3.45
2023-03-29T18:09:44.778Z,2.92
2023-03-29T18:12:12.082Z,3.58
2023-03-29T18:14:39.270Z,3.50
2023-03-29T18:17:06.665Z,3.30
2023-03-29T18:19:33.861Z,3.35
2023-03-29T18:22:01.074Z,3.67
2023-03-29T18:24:28.480Z,3.60
2023-03-29T18:26:56.043Z,3.30
2023-03-29T18:29:23.864Z,3.78
2023-03-29T18:31:50.626Z,4.00
2023-03-29T18:34:17.550Z,3.42
2023-03-29T18:36:44.239Z,3.20
2023-03-29T18:39:10.943Z,3.92
2023-03-29T18:41:37.815Z,4.22
2023-03-29T18:44:05.007Z,3.47
2023-03-29T18:46:31.966Z,4.22
2023-03-29T18:49:01.469Z,3.97
2023-03-29T18:51:28.374Z,3.53
2023-03-29T18:53:56.060Z,4.05
2023-03-29T18:56:23.164Z,3.17
2023-03-29T18:58:50.047Z,3.55
2023-03-29T19:01:16.875Z,4.18
2023-03-29T19:03:43.840Z,3.67
2023-03-29T19:06:11.788Z,4.63
2023-03-29T19:08:41.159Z,4.00
2023-03-29T19:11:10.574Z,3.42
2023-03-29T19:13:37.507Z,4.07
2023-03-29T19:16:04.895Z,4.20
2023-03-29T19:18:33.083Z,4.32
2023-03-29T19:21:00.055Z,4.93
2023-03-29T19:23:28.277Z,4.43
2023-03-29T19:25:57.297Z,4.18
2023-03-29T19:28:24.884Z,4.55
2023-03-29T19:30:51.819Z,4.45
2023-03-29T19:33:19.894Z,4.75
2023-03-29T19:35:47.160Z,3.92
2023-03-29T19:38:13.975Z,4.20
2023-03-29T19:40:45.497Z,4.00
2023-03-29T19:43:16.406Z,4.10
2023-03-29T19:45:48.093Z,3.78
2023-03-29T19:48:22.537Z,4.32
2023-03-29T19:50:50.552Z,3.92
2023-03-29T19:53:17.475Z,4.95
2023-03-29T19:55:45.372Z,4.20
2023-03-29T19:58:12.923Z,4.50
2023-03-29T20:00:39.903Z,20.13
2023-03-29T20:03:11.202Z,10.93
2023-03-29T20:05:38.881Z,4.75
2023-03-29T20:08:06.660Z,4.97
2023-03-29T20:10:34.147Z,4.53
2023-03-29T20:13:01.841Z,4.18
2023-03-29T20:15:28.935Z,4.77
2023-03-29T20:17:59.318Z,4.75
2023-03-29T20:20:27.010Z,4.72
2023-03-29T20:23:04.678Z,4.90
2023-03-29T20:25:35.606Z,5.10
2023-03-29T20:28:02.849Z,5.18
2023-03-29T20:30:29.723Z,5.32
2023-03-29T20:32:57.162Z,5.22
2023-03-29T20:35:24.938Z,4.78
2023-03-29T20:37:51.667Z,5.17
2023-03-29T20:40:18.545Z,5.50
2023-03-29T20:42:46.360Z,4.75
2023-03-29T20:45:18.392Z,4.87
2023-03-29T20:47:57.588Z,4.93
2023-03-29T20:50:28.565Z,4.78
2023-03-29T20:53:03.536Z,4.60
2023-03-29T20:55:33.326Z,4.60
2023-03-29T20:58:01.564Z,4.88
2023-03-29T21:00:30.280Z,5.18
2023-03-29T21:05:28.982Z,4.20
2023-03-29T21:07:55.865Z,4.43
2023-03-29T21:10:23.887Z,4.32
2023-03-29T21:12:52.007Z,28.30
2023-03-29T21:15:19.775Z,5.25
2023-03-29T21:17:47.561Z,4.90
2023-03-29T21:20:15.280Z,8.75
2023-03-29T21:22:43.120Z,4.80
2023-03-29T21:25:12.494Z,4.78
2023-03-29T21:27:39.223Z,4.68
2023-03-29T21:30:08.619Z,4.68
2023-03-29T21:32:36.142Z,6.43
2023-03-29T21:35:02.835Z,5.43
2023-03-29T21:37:29.556Z,5.82
2023-03-29T21:39:56.246Z,5.25
2023-03-29T21:42:22.968Z,13.43
2023-03-29T21:44:49.737Z,5.57
2023-03-29T21:47:16.432Z,5.20
2023-03-29T21:49:43.153Z,5.07
2023-03-29T21:52:09.907Z,16.23
2023-03-29T21:54:36.627Z,7.93
2023-03-29T21:57:03.427Z,9.95
2023-03-29T21:59:30.781Z,4.75
2023-03-29T22:01:58.618Z,5.15
2023-03-29T22:04:36.045Z,12.65
2023-03-29T22:07:04.968Z,7.13
2023-03-29T22:09:34.764Z,5.32
2023-03-29T22:12:01.680Z,4.88
2023-03-29T22:14:30.216Z,4.38
2023-03-29T22:16:57.273Z,4.38
2023-03-29T22:19:24.038Z,5.03
2023-03-29T22:21:51.411Z,4.90
2023-03-29T22:24:18.495Z,5.03
2023-03-29T22:26:45.249Z,4.32
2023-03-29T22:29:12.263Z,4.70
2023-03-29T22:31:39.467Z,4.85
2023-03-29T22:34:06.860Z,4.55
2023-03-29T22:36:34.116Z,5.07
2023-03-29T22:39:01.321Z,4.60
2023-03-29T22:41:28.806Z,4.47
2023-03-29T22:43:58.149Z,5.07
2023-03-29T22:46:25.454Z,4.38
2023-03-29T22:48:53.645Z,4.28
2023-03-29T22:51:21.167Z,4.35
2023-03-29T22:53:48.552Z,4.38
2023-03-29T22:56:16.403Z,4.80
2023-03-29T22:58:47.415Z,4.80
2023-03-29T23:01:14.544Z,4.57
2023-03-29T23:03:41.777Z,5.25
2023-03-29T23:06:08.996Z,4.38
2023-03-29T23:08:36.470Z,4.00
2023-03-29T23:11:04.460Z,4.35
2023-03-29T23:13:33.462Z,4.07
2023-03-29T23:16:01.204Z,3.75
2023-03-29T23:18:29.562Z,4.60
2023-03-29T23:20:57.350Z,3.80
2023-03-29T23:23:25.671Z,4.13
2023-03-29T23:25:53.258Z,4.30
2023-03-29T23:28:23.396Z,4.28
2023-03-29T23:31:00.986Z,4.18
2023-03-29T23:33:28.836Z,4.33
2023-03-29T23:35:56.082Z,4.00
2023-03-29T23:38:24.189Z,3.75
2023-03-29T23:41:00.232Z,4.00
2023-03-29T23:43:31.751Z,4.25
2023-03-29T23:45:59.675Z,4.03
2023-03-29T23:48:27.175Z,4.30
2023-03-29T23:50:57.170Z,4.45
2023-03-29T23:53:25.424Z,3.72
2023-03-29T23:55:53.157Z,3.90
2023-03-29T23:58:20.392Z,3.70
